Time;durP1;ratioP1;P1;durP2;ratioP2;P2;SDS_P1;SDS_P2;PMS_P1;PMS_P2;Temp;Humidity;BMP_temperature;BMP_pressure;BME280_temperature;BME280_humidity;BME280_pressure;Samples;Min_cycle;Max_cycle;Signal;HPM_P1;HPM_P2
2022/08/24 00:00:22;;;;;;;11.55;5.42;;;;;;;18.62;92.92;98992.43;1718045;83;21018;-79
2022/08/24 00:02:50;;;;;;;13.37;5.70;;;;;;;18.63;93.24;99005.52;1717992;82;21046;-79
2022/08/24 00:05:20;;;;;;;12.75;5.70;;;;;;;18.65;93.64;99003.63;1726771;82;21035;-79
2022/08/24 00:07:48;;;;;;;12.73;5.90;;;;;;;18.68;93.82;99016.63;1717990;82;21514;-79
2022/08/24 00:10:16;;;;;;;21.02;6.55;;;;;;;18.74;93.99;99018.50;1718080;83;21065;-79
2022/08/24 00:12:43;;;;;;;12.58;5.50;;;;;;;18.78;94.05;99016.93;1717868;82;21042;-80
2022/08/24 00:15:13;;;;;;;11.48;5.97;;;;;;;18.80;93.87;99019.03;1718076;82;21025;-80
2022/08/24 00:17:39;;;;;;;13.28;6.12;;;;;;;18.79;92.38;99019.95;1717877;82;21008;-79
2022/08/24 00:20:10;;;;;;;15.10;5.67;;;;;;;18.74;92.52;99034.30;1768750;80;21018;-79
2022/08/24 00:22:38;;;;;;;14.00;6.45;;;;;;;18.71;92.57;99034.50;1769208;80;21018;-78
2022/08/24 00:25:07;;;;;;;11.38;6.08;;;;;;;18.70;92.93;99036.27;1763727;81;21003;-78
2022/08/24 00:27:35;;;;;;;11.45;6.05;;;;;;;18.72;93.49;99041.00;1745254;81;21378;-79
2022/08/24 00:30:07;;;;;;;17.15;6.42;;;;;;;18.77;93.73;99052.56;1769102;81;21046;-78
2022/08/24 00:32:35;;;;;;;18.35;5.65;;;;;;;18.79;93.32;99041.47;1769226;80;21019;-78
2022/08/24 00:35:05;;;;;;;14.23;5.87;;;;;;;18.77;92.97;99050.77;1768534;80;21050;-78
2022/08/24 00:37:33;;;;;;;14.60;5.78;;;;;;;18.76;93.19;99051.73;1768206;81;20995;-78
2022/08/24 00:39:59;;;;;;;11.03;5.12;;;;;;;18.78;93.41;99049.85;1768577;81;21530;-78
2022/08/24 00:42:26;;;;;;;14.18;5.20;;;;;;;18.78;93.29;99057.75;1768615;80;21053;-78
2022/08/24 00:44:53;;;;;;;11.05;4.90;;;;;;;18.77;93.44;99063.94;1768647;80;21011;-78
2022/08/24 00:47:25;;;;;;;9.38;4.80;;;;;;;18.77;92.65;99065.26;1768708;81;20975;-78
2022/08/24 00:50:03;;;;;;;12.58;5.12;;;;;;;18.72;92.29;99060.75;1768566;80;21010;-79
2022/08/24 00:52:45;;;;;;;9.20;4.50;;;;;;;18.64;91.99;99053.30;1768780;80;21456;-79
2022/08/24 00:55:18;;;;;;;13.03;5.40;;;;;;;18.61;92.50;99052.62;1768853;80;21025;-78
2022/08/24 00:57:49;;;;;;;16.05;5.50;;;;;;;18.59;92.91;99046.60;1768949;81;21014;-78
2022/08/24 01:00:23;;;;;;;8.03;4.67;;;;;;;18.56;92.54;99052.91;1768678;80;21010;-78
2022/08/24 01:02:55;;;;;;;12.45;5.25;;;;;;;18.56;93.12;99041.50;1768534;80;20970;-80
2022/08/24 01:05:24;;;;;;;10.95;5.67;;;;;;;18.59;93.43;99040.02;1768599;81;21515;-78
2022/08/24 01:07:51;;;;;;;11.05;5.33;;;;;;;18.59;93.24;99025.06;1768590;80;21049;-78
2022/08/24 01:10:23;;;;;;;11.10;4.72;;;;;;;18.62;93.28;99025.34;1757563;81;21471;-78
2022/08/24 01:12:55;;;;;;;11.60;4.97;;;;;;;18.58;93.23;99027.34;1761124;80;21042;-78
2022/08/24 01:15:22;;;;;;;12.33;5.22;;;;;;;18.57;93.00;99029.58;1768678;81;21479;-78
2022/08/24 01:20:36;;;;;;;12.13;5.35;;;;;;;18.57;93.77;99024.78;1734442;82;21031;-79
2022/08/24 01:23:43;;;;;;;14.00;5.58;;;;;;;18.58;93.64;99029.09;1737955;82;20990;-79
2022/08/24 01:26:17;;;;;;;11.05;5.15;;;;;;;18.60;93.47;99028.09;1719953;82;20976;-78
2022/08/24 01:28:48;;;;;;;10.88;5.45;;;;;;;18.62;93.84;99026.66;1737978;82;21015;-79
2022/08/24 01:31:17;;;;;;;11.48;5.47;;;;;;;18.65;93.50;99020.75;1732635;82;21022;-79
2022/08/24 01:33:43;;;;;;;11.38;4.37;;;;;;;18.65;93.61;99010.22;1739152;82;20952;-79
2022/08/24 01:36:31;;;;;;;8.98;4.80;;;;;;;18.62;93.36;99003.84;1726559;82;21054;-79
2022/08/24 01:39:03;;;;;;;13.08;4.95;;;;;;;18.59;93.23;98997.42;1726747;82;20977;-79
2022/08/24 01:41:30;;;;;;;12.37;5.17;;;;;;;18.56;93.22;98996.30;1735450;82;21102;-78
2022/08/24 01:43:58;;;;;;;15.43;5.42;;;;;;;18.53;93.00;99007.00;1736836;82;21002;-78
2022/08/24 01:46:27;;;;;;;12.45;4.75;;;;;;;18.54;93.22;99009.16;1736052;82;21029;-78
2022/08/24 01:48:57;;;;;;;12.73;5.25;;;;;;;18.58;93.71;99004.09;1736878;82;20991;-78
2022/08/24 01:51:31;;;;;;;12.58;5.42;;;;;;;18.62;93.58;98996.38;1738393;82;21003;-78
2022/08/24 01:54:01;;;;;;;10.55;5.10;;;;;;;18.64;93.79;99008.54;1738355;82;21054;-78
2022/08/24 01:56:31;;;;;;;12.00;4.70;;;;;;;18.66;93.44;99018.95;1741400;79;21082;-79
2022/08/24 01:58:58;;;;;;;10.88;4.55;;;;;;;18.66;93.39;99018.95;1735709;81;20993;-78
2022/08/24 02:01:28;;;;;;;15.60;5.00;;;;;;;18.65;93.61;99015.48;1709234;84;21019;-78
2022/08/24 02:03:57;;;;;;;9.95;4.65;;;;;;;18.65;93.24;99014.64;1738126;82;21486;-78
2022/08/24 02:06:26;;;;;;;12.53;4.87;;;;;;;18.65;93.44;99013.33;1733653;82;21012;-79
2022/08/24 02:08:54;;;;;;;12.00;5.25;;;;;;;18.64;92.85;98999.77;1733665;83;21030;-78
2022/08/24 02:11:22;;;;;;;8.93;4.62;;;;;;;18.60;93.20;98999.58;1731270;83;21075;-79
2022/08/24 02:13:48;;;;;;;14.33;4.90;;;;;;;18.61;92.93;98996.02;1733577;83;20968;-79
2022/08/24 02:16:16;;;;;;;11.33;4.53;;;;;;;18.59;92.91;98992.63;1733734;83;21019;-78
2022/08/24 02:18:43;;;;;;;15.60;5.53;;;;;;;18.59;93.08;98988.69;1721921;82;21527;-79
2022/08/24 02:21:12;;;;;;;9.63;5.12;;;;;;;18.58;93.42;98986.97;1729115;83;21039;-79
2022/08/24 02:23:40;;;;;;;9.95;4.60;;;;;;;18.60;93.74;98985.09;1700152;83;21593;-78
2022/08/24 02:26:10;;;;;;;15.93;5.78;;;;;;;18.63;93.42;98979.18;1729095;83;21026;-79
2022/08/24 02:28:39;;;;;;;14.47;5.50;;;;;;;18.59;93.15;98982.10;1729308;83;21475;-78
2022/08/24 02:31:07;;;;;;;13.25;5.30;;;;;;;18.62;93.60;98977.95;1729615;83;21487;-80
2022/08/24 02:33:36;;;;;;;10.63;4.83;;;;;;;18.63;93.51;98976.55;1729352;83;21007;-78
2022/08/24 02:36:04;;;;;;;14.73;5.22;;;;;;;18.65;93.84;98986.52;1729050;83;21004;-78
2022/08/24 02:38:32;;;;;;;8.60;4.97;;;;;;;18.67;94.00;98981.17;1729096;83;21471;-78
2022/08/24 02:40:59;;;;;;;11.03;5.30;;;;;;;18.73;94.10;98983.91;1729040;83;21031;-78
2022/08/24 02:43:27;;;;;;;9.10;5.03;;;;;;;18.77;93.86;98984.94;1729150;83;20967;-78
2022/08/24 02:45:54;;;;;;;11.93;5.35;;;;;;;18.75;93.17;98974.13;1729209;83;21045;-78
2022/08/24 02:48:22;;;;;;;13.68;5.75;;;;;;;18.74;92.85;98978.55;1729284;83;21054;-78
2022/08/24 02:50:50;;;;;;;11.35;5.30;;;;;;;18.73;92.95;98991.33;1729183;83;21019;-78
2022/08/24 02:53:20;;;;;;;9.95;5.15;;;;;;;18.73;93.55;98998.39;1729222;83;21011;-78
2022/08/24 02:55:47;;;;;;;12.60;5.65;;;;;;;18.77;94.19;98990.20;1728916;83;21102;-78
2022/08/24 02:58:16;;;;;;;12.60;5.72;;;;;;;18.82;94.21;98990.81;1729174;83;21557;-78
2022/08/24 03:00:46;;;;;;;9.10;4.92;;;;;;;18.78;93.50;98990.59;1728964;83;21678;-80
2022/08/24 03:03:14;;;;;;;9.33;4.78;;;;;;;18.74;93.26;98992.17;1729120;83;20976;-79
2022/08/24 03:05:41;;;;;;;14.15;5.65;;;;;;;18.72;93.18;98998.00;1729309;83;20995;-78
2022/08/24 03:08:08;;;;;;;11.03;4.58;;;;;;;18.74;93.63;98994.35;1708843;83;21011;-78
2022/08/24 03:10:34;;;;;;;15.40;5.40;;;;;;;18.76;93.29;98988.52;1729261;83;21042;-81
2022/08/24 03:13:02;;;;;;;10.18;5.15;;;;;;;18.76;93.61;98995.11;1729164;83;21507;-78
2022/08/24 03:15:29;;;;;;;9.08;5.22;;;;;;;18.78;93.63;99000.26;1729242;83;21074;-79
2022/08/24 03:17:56;;;;;;;12.55;4.90;;;;;;;18.80;93.70;99007.18;1695084;83;21626;-78
2022/08/24 03:20:24;;;;;;;11.10;4.33;;;;;;;18.82;93.14;99004.43;1762955;80;21074;-80
2022/08/24 03:22:51;;;;;;;10.60;4.60;;;;;;;18.78;93.61;99002.45;1766723;81;21565;-80
2022/08/24 03:25:20;;;;;;;10.30;4.60;;;;;;;18.77;93.08;99013.91;1739779;82;21187;-78
2022/08/24 03:27:47;;;;;;;11.05;4.85;;;;;;;18.74;93.17;99015.42;1766781;80;21058;-79
2022/08/24 03:30:15;;;;;;;9.18;3.87;;;;;;;18.78;93.29;99021.33;1766876;81;21007;-79
2022/08/24 03:32:42;;;;;;;10.40;4.22;;;;;;;18.78;93.00;99019.56;1748557;82;21024;-78
2022/08/24 03:35:11;;;;;;;10.70;4.10;;;;;;;18.76;92.68;99021.89;1731881;82;20995;-80
2022/08/24 03:37:38;;;;;;;7.87;4.45;;;;;;;18.74;92.64;99031.67;1766584;80;21010;-80
2022/08/24 03:40:09;;;;;;;11.53;4.83;;;;;;;18.76;92.71;99027.16;1748376;81;20984;-79
2022/08/24 03:42:35;;;;;;;10.20;4.30;;;;;;;18.74;92.45;99023.77;1739442;82;21081;-80
2022/08/24 03:45:03;;;;;;;15.13;4.58;;;;;;;18.67;93.30;99017.55;1766418;80;20995;-80
2022/08/24 03:47:30;;;;;;;11.28;4.70;;;;;;;18.67;92.78;99016.72;1765766;81;21038;-80
2022/08/24 03:49:57;;;;;;;9.63;4.45;;;;;;;18.65;93.23;99017.28;1763427;81;21565;-80
2022/08/24 03:52:24;;;;;;;12.58;4.47;;;;;;;18.62;93.24;99020.08;1748359;81;20988;-80
2022/08/24 03:54:51;;;;;;;12.78;4.90;;;;;;;18.62;92.82;99014.81;1739599;82;21546;-80
2022/08/24 03:57:18;;;;;;;9.70;4.78;;;;;;;18.63;93.16;99013.89;1766285;81;21078;-79
2022/08/24 03:59:45;;;;;;;14.23;5.17;;;;;;;18.61;93.18;99015.77;1748305;81;21084;-80
2022/08/24 04:02:13;;;;;;;12.28;4.65;;;;;;;18.63;93.48;99015.20;1739684;82;21447;-80
2022/08/24 04:04:39;;;;;;;8.50;4.85;;;;;;;18.66;93.69;99016.32;1766580;81;21045;-78
2022/08/24 04:07:06;;;;;;;12.95;5.53;;;;;;;18.68;93.92;99014.44;1739706;82;21031;-77
2022/08/24 04:09:33;;;;;;;12.23;5.03;;;;;;;18.71;93.79;99015.59;1742839;81;21441;-78
2022/08/24 04:12:00;;;;;;;15.72;5.42;;;;;;;18.76;93.50;99022.76;1722857;82;20957;-78
2022/08/24 04:14:26;;;;;;;13.70;5.35;;;;;;;18.78;93.21;99018.25;1734897;82;20991;-79
2022/08/24 04:16:55;;;;;;;8.60;4.90;;;;;;;18.78;93.71;99018.69;1762241;81;21506;-78
2022/08/24 04:19:24;;;;;;;10.32;5.22;;;;;;;18.79;93.91;99017.77;1747546;81;22266;-79
2022/08/24 04:21:52;;;;;;;12.55;5.10;;;;;;;18.82;93.19;99015.84;1769092;80;21066;-79
2022/08/24 04:24:19;;;;;;;11.75;5.30;;;;;;;18.84;93.57;99024.49;1763906;81;21038;-79
2022/08/24 04:26:46;;;;;;;13.08;5.78;;;;;;;18.88;93.36;99026.48;1763621;81;21019;-78
2022/08/24 04:29:17;;;;;;;23.02;4.97;;;;;;;18.95;93.53;99025.63;1769297;80;21499;-78
2022/08/24 04:31:46;;;;;;;8.73;5.00;;;;;;;18.97;93.23;99027.22;1764812;81;20971;-78
2022/08/24 04:34:15;;;;;;;11.03;4.90;;;;;;;19.00;93.16;99020.45;1768808;80;21002;-78
2022/08/24 04:36:43;;;;;;;8.03;4.60;;;;;;;19.00;92.87;99019.14;1768469;81;21019;-79
2022/08/24 04:39:10;;;;;;;10.88;4.50;;;;;;;19.01;92.95;99013.39;1768608;80;21042;-79
2022/08/24 04:41:51;;;;;;;8.75;4.80;;;;;;;19.06;92.95;99012.66;1766168;81;21066;-79
2022/08/24 04:44:18;;;;;;;14.98;4.08;;;;;;;19.08;92.67;99018.67;1768747;81;21525;-79
2022/08/24 04:46:46;;;;;;;10.85;4.22;;;;;;;19.09;92.69;99009.81;1768913;81;20991;-79
2022/08/24 04:49:13;;;;;;;8.25;4.90;;;;;;;19.11;92.34;99005.77;1768968;80;21011;-78
2022/08/24 04:51:40;;;;;;;9.98;4.90;;;;;;;19.09;92.31;99013.77;1769035;81;20967;-79
2022/08/24 04:54:07;;;;;;;10.95;4.35;;;;;;;19.08;92.34;99022.62;1768992;81;21526;-78
2022/08/24 04:56:36;;;;;;;11.48;4.20;;;;;;;19.11;92.08;99021.59;1768824;81;21070;-79
2022/08/24 04:59:04;;;;;;;13.53;5.00;;;;;;;19.11;92.00;99005.77;1768682;80;21550;-80
2022/08/24 05:01:34;;;;;;;6.87;3.77;;;;;;;19.15;92.06;99008.12;1768966;81;21102;-78
2022/08/24 05:04:03;;;;;;;8.88;4.08;;;;;;;19.19;92.08;99015.37;1751928;81;21026;-79
2022/08/24 05:06:31;;;;;;;10.30;4.10;;;;;;;19.21;91.75;99022.23;1768303;81;21018;-78
2022/08/24 05:08:59;;;;;;;7.42;3.67;;;;;;;19.27;91.59;99015.73;1768878;81;20987;-78
2022/08/24 05:11:27;;;;;;;10.23;4.42;;;;;;;19.32;91.28;99008.85;1768814;80;21037;-79
2022/08/24 05:13:56;;;;;;;10.20;3.80;;;;;;;19.33;90.77;99003.97;1764990;81;20963;-79
2022/08/24 05:16:25;;;;;;;9.73;4.70;;;;;;;19.39;91.02;99012.81;1769080;80;21119;-79
2022/08/24 05:18:54;;;;;;;22.70;10.15;;;;;;;19.46;90.82;99007.53;1768704;80;21526;-79
2022/08/24 05:21:23;;;;;;;13.43;4.35;;;;;;;19.53;90.77;98999.59;1768890;80;21483;-79
2022/08/24 05:23:50;;;;;;;9.18;3.60;;;;;;;19.56;90.21;98998.58;1768917;80;20996;-78
2022/08/24 05:26:24;;;;;;;11.68;3.77;;;;;;;19.62;90.21;98996.38;1765479;80;20979;-79
2022/08/24 05:29:00;;;;;;;7.45;4.12;;;;;;;19.64;89.92;98998.45;1769259;81;20990;-79
2022/08/24 05:31:31;;;;;;;10.75;4.30;;;;;;;19.72;89.82;98995.84;1769206;80;21636;-82
2022/08/24 05:34:02;;;;;;;9.03;4.90;;;;;;;19.72;89.54;98994.04;1765032;80;21007;-81
2022/08/24 05:36:37;;;;;;;9.08;4.67;;;;;;;19.74;89.55;98990.83;1759833;80;21039;-88
2022/08/24 05:39:10;;;;;;;14.98;6.92;;;;;;;19.79;88.99;98990.52;1773079;81;21055;-88
2022/08/24 05:41:41;;;;;;;;;;;;;;;19.77;88.76;98991.93;1770525;81;21059;-89
2022/08/24 05:44:13;;;;;;;25.85;11.95;;;;;;;19.78;89.00;99013.91;1762750;81;20138;-89
2022/08/24 05:46:46;;;;;;;21.62;10.50;;;;;;;19.81;88.82;99017.64;1762855;81;21093;-89
2022/08/24 05:49:18;;;;;;;16.50;7.22;;;;;;;19.83;89.06;99032.42;1763927;81;21111;-88
2022/08/24 05:51:52;;;;;;;16.00;5.10;;;;;;;19.86;88.91;99019.05;1739638;81;21089;-89
2022/08/24 05:54:25;;;;;;;13.45;5.08;;;;;;;19.88;88.81;99022.91;1714128;79;21146;-89
2022/08/24 05:56:54;;;;;;;12.73;5.08;;;;;;;19.90;89.07;99024.14;1677169;86;21175;-89
2022/08/24 05:59:23;;;;;;;8.73;4.75;;;;;;;19.90;88.96;99038.17;1683162;84;21063;-89
2022/08/24 06:01:52;;;;;;;11.80;4.75;;;;;;;19.92;89.01;99045.51;1680791;81;21095;-87
2022/08/24 06:04:20;;;;;;;13.43;5.37;;;;;;;19.95;89.08;99048.41;1676439;85;21075;-88
2022/08/24 06:13:00;;;;;;;11.48;5.78;;;;;;;20.10;89.78;99061.95;1733850;79;21102;-88
2022/08/24 06:15:29;;;;;;;10.03;5.28;;;;;;;20.16;89.89;99056.27;1756999;81;21080;-87
2022/08/24 06:17:56;;;;;;;11.48;5.62;;;;;;;20.23;89.94;99065.48;1762378;81;21025;-87
2022/08/24 06:20:23;;;;;;;7.62;4.50;;;;;;;20.27;89.77;99079.30;1753478;80;22053;-82
2022/08/24 06:22:50;;;;;;;11.40;5.12;;;;;;;20.32;89.92;99077.23;1757731;80;20965;-81
2022/08/24 06:28:03;;;;;;;10.68;5.33;;;;;;;20.39;89.49;99058.73;1753809;80;21096;-83
2022/08/24 06:30:30;;;;;;;9.65;4.50;;;;;;;20.37;88.95;99067.22;1753807;80;21048;-82
2022/08/24 06:33:01;;;;;;;11.05;4.78;;;;;;;20.40;88.81;99065.69;1753955;80;21020;-82
2022/08/24 06:35:29;;;;;;;19.80;5.75;;;;;;;20.46;88.50;99060.47;1752779;80;21028;-84
2022/08/24 06:37:57;;;;;;;16.10;5.33;;;;;;;20.42;88.32;99053.23;1761716;80;20977;-83
2022/08/24 06:40:25;;;;;;;15.55;8.00;;;;;;;20.41;88.00;99054.19;1761141;80;20998;-84
2022/08/24 06:42:51;;;;;;;12.23;5.80;;;;;;;20.35;88.00;99061.20;1752178;80;21040;-85
2022/08/24 06:45:23;;;;;;;10.72;5.75;;;;;;;20.34;88.37;99064.77;1748527;80;21041;-84
2022/08/24 06:47:51;;;;;;;9.83;5.28;;;;;;;20.40;88.32;99075.41;1750658;80;20961;-85
2022/08/24 06:50:18;;;;;;;14.43;4.72;;;;;;;20.45;88.38;99075.93;1751049;80;21493;-83
2022/08/24 06:52:45;;;;;;;15.75;4.97;;;;;;;20.49;88.15;99082.70;1753870;80;21006;-82
2022/08/24 06:55:12;;;;;;;14.83;5.33;;;;;;;20.50;87.93;99078.29;1749069;80;21079;-83
2022/08/24 06:57:39;;;;;;;15.80;7.95;;;;;;;20.50;87.36;99069.88;1751652;80;21071;-82
2022/08/24 07:00:09;;;;;;;12.68;4.60;;;;;;;20.53;87.33;99078.94;1750322;80;21091;-83
2022/08/24 07:02:36;;;;;;;10.63;4.45;;;;;;;20.60;87.51;99079.40;1751671;81;21009;-82
2022/08/24 07:05:03;;;;;;;11.55;4.33;;;;;;;20.64;87.60;99087.48;1725891;81;21568;-81
2022/08/24 07:07:48;;;;;;;8.53;4.40;;;;;;;20.66;87.18;99093.52;1753691;80;20985;-83
2022/08/24 07:10:15;;;;;;;8.55;3.92;;;;;;;20.72;86.36;99098.38;1749933;80;21327;-84
2022/08/24 07:12:42;;;;;;;7.87;4.53;;;;;;;20.76;86.49;99102.51;1761612;80;21005;-83
2022/08/24 07:15:09;;;;;;;13.18;4.47;;;;;;;20.85;86.40;99105.87;1757529;80;22224;-82
2022/08/24 07:17:36;;;;;;;8.58;4.12;;;;;;;20.88;85.24;99100.00;1751111;80;20986;-83
2022/08/24 07:20:04;;;;;;;9.63;4.05;;;;;;;20.84;85.29;99095.39;1765056;80;20999;-83
2022/08/24 07:22:39;;;;;;;13.58;4.25;;;;;;;20.83;84.72;99098.52;1755554;80;21064;-82
2022/08/24 07:25:07;;;;;;;9.68;4.15;;;;;;;20.78;84.48;99093.17;1757149;80;20969;-87
2022/08/24 07:27:35;;;;;;;9.68;4.20;;;;;;;20.71;84.58;99098.03;1761802;80;21017;-80
2022/08/24 07:30:02;;;;;;;17.25;4.30;;;;;;;20.74;84.80;99107.05;1756584;80;21035;-83
2022/08/24 07:32:30;;;;;;;13.30;4.35;;;;;;;20.70;84.82;99109.53;1765296;80;21024;-85
2022/08/24 07:34:56;;;;;;;12.93;4.80;;;;;;;20.70;85.21;99110.84;1760149;81;21008;-84
2022/08/24 07:37:24;;;;;;;13.45;4.92;;;;;;;20.69;85.14;99115.78;1767918;80;20989;-85
2022/08/24 07:39:51;;;;;;;13.98;4.78;;;;;;;20.68;85.05;99111.42;1729507;80;21064;-85
2022/08/24 07:42:18;;;;;;;14.23;4.70;;;;;;;20.63;85.05;99113.06;1718303;80;21133;-85
2022/08/24 07:44:45;;;;;;;14.35;5.05;;;;;;;20.61;85.52;99111.45;1760359;80;21031;-82
2022/08/24 07:47:12;;;;;;;11.90;5.28;;;;;;;20.64;85.65;99123.14;1766185;80;20980;-84
2022/08/24 07:49:40;;;;;;;10.03;4.75;;;;;;;20.65;85.32;99124.82;1760998;80;21048;-83
2022/08/24 07:52:09;;;;;;;11.83;5.17;;;;;;;20.74;85.77;99121.58;1754987;80;21078;-84
2022/08/24 07:54:36;;;;;;;12.10;5.30;;;;;;;20.76;85.35;99124.97;1765901;80;21007;-85
2022/08/24 07:57:05;;;;;;;12.55;5.12;;;;;;;20.80;85.52;99119.84;1755008;80;21084;-83
2022/08/24 07:59:34;;;;;;;10.85;5.03;;;;;;;20.88;85.29;99124.63;1759753;80;21064;-83
2022/08/24 08:02:01;;;;;;;11.20;4.67;;;;;;;20.93;85.07;99125.63;1754383;80;21064;-83
2022/08/24 08:04:30;;;;;;;13.15;4.80;;;;;;;20.97;84.97;99124.02;1756016;80;21068;-82
2022/08/24 08:07:02;;;;;;;14.38;4.53;;;;;;;21.01;84.50;99129.94;1758878;80;21509;-84
2022/08/24 08:09:30;;;;;;;10.98;5.80;;;;;;;21.03;83.76;99126.23;1757003;80;21008;-84
2022/08/24 08:11:57;;;;;;;11.78;5.20;;;;;;;21.10;83.76;99118.73;1755411;80;20990;-84
2022/08/24 08:14:24;;;;;;;13.25;5.28;;;;;;;21.13;83.36;99125.14;1749590;80;21117;-84
2022/08/24 08:16:51;;;;;;;7.53;4.67;;;;;;;21.17;83.22;99126.63;1755740;80;21088;-84
2022/08/24 08:19:17;;;;;;;12.85;4.20;;;;;;;21.20;83.47;99121.59;1757393;80;21028;-84
2022/08/24 08:24:43;;;;;;;7.47;4.33;;;;;;;21.32;83.67;99127.84;1752700;80;21044;-85
2022/08/24 08:27:15;;;;;;;9.70;4.22;;;;;;;21.43;83.65;99134.11;1752213;80;21112;-84
2022/08/24 08:29:42;;;;;;;9.38;4.33;;;;;;;21.39;83.54;99131.77;1744587;80;21072;-84
2022/08/24 08:32:13;;;;;;;11.85;4.28;;;;;;;21.52;83.91;99124.67;1743335;80;21600;-83
2022/08/24 08:34:40;;;;;;;18.35;4.60;;;;;;;21.64;83.99;99119.84;1752322;80;21060;-83
2022/08/24 08:37:07;;;;;;;11.57;4.42;;;;;;;21.71;82.85;99120.27;1749146;80;21080;-87
2022/08/24 08:39:35;;;;;;;10.53;4.83;;;;;;;21.77;82.85;99125.13;1763144;80;21469;-88
2022/08/24 08:42:39;;;;;;;13.65;4.95;;;;;;;21.86;82.43;99117.00;1746126;81;20990;-87
2022/08/24 08:45:32;;;;;;;12.25;4.87;;;;;;;21.96;82.02;99125.97;1766373;80;20969;-86
2022/08/24 08:48:42;;;;;;;11.97;5.40;;;;;;;22.11;82.02;99120.55;1714921;81;21055;-87
2022/08/24 08:51:29;;;;;;;10.18;4.95;;;;;;;22.16;81.18;99125.02;1747455;80;21046;-87
2022/08/24 08:54:19;;;;;;;10.50;5.30;;;;;;;22.27;80.96;99123.80;1760233;81;21259;-87
2022/08/24 08:57:17;;;;;;;12.58;5.12;;;;;;;22.37;80.10;99122.16;1755876;80;20972;-87
2022/08/24 09:00:11;;;;;;;12.30;4.35;;;;;;;22.54;80.87;99130.66;1710866;82;21050;-85
2022/08/24 09:03:12;;;;;;;;;;;;;;;22.75;80.33;99135.69;1744499;80;21060;-86
2022/08/24 09:06:14;;;;;;;12.95;4.58;;;;;;;22.90;79.46;99142.13;1743389;81;20169;-86
2022/08/24 09:09:08;;;;;;;11.12;4.20;;;;;;;22.98;79.81;99138.44;1663359;86;21059;-86
2022/08/24 09:11:54;;;;;;;11.40;3.58;;;;;;;23.03;79.25;99134.97;1699074;80;21075;-90
2022/08/24 09:21:21;;;;;;;7.97;3.98;;;;;;;23.10;78.47;99142.84;1667811;80;21119;-89
2022/08/24 09:27:11;;;;;;;13.17;4.13;;;;;;;23.25;77.17;99139.97;1711925;80;21082;-88
2022/08/24 09:30:13;;;;;;;8.60;3.55;;;;;;;23.40;77.91;99136.97;1673108;81;21048;-89
2022/08/24 09:36:13;;;;;;;6.37;3.58;;;;;;;23.45;76.37;99135.77;1646702;82;21100;-86
2022/08/24 09:39:08;;;;;;;8.55;3.85;;;;;;;23.53;76.09;99124.91;1662526;86;21075;-87
2022/08/24 09:42:10;;;;;;;9.03;3.87;;;;;;;23.68;75.75;99127.34;1682244;85;21066;-87
2022/08/24 09:44:45;;;;;;;9.83;3.65;;;;;;;23.74;75.74;99129.02;1683986;82;20976;-87
2022/08/24 09:47:46;;;;;;;7.53;3.75;;;;;;;23.84;75.22;99133.16;1662899;84;20984;-87
2022/08/24 09:50:57;;;;;;;7.47;3.25;;;;;;;24.04;74.23;99136.03;1629485;87;21059;-88
2022/08/24 09:54:22;;;;;;;9.08;3.83;;;;;;;24.09;73.81;99127.19;1662212;85;21051;-84
2022/08/24 09:56:57;;;;;;;10.95;4.00;;;;;;;24.20;73.74;99124.03;1661773;85;21063;-83
2022/08/24 09:59:46;;;;;;;7.92;3.95;;;;;;;24.35;73.11;99133.91;1654593;85;21051;-87
2022/08/24 10:02:39;;;;;;;8.23;3.50;;;;;;;24.42;72.39;99131.09;1645811;85;21570;-83
2022/08/24 10:05:30;;;;;;;6.05;3.30;;;;;;;24.49;73.02;99121.28;1674517;84;21122;-85
2022/08/24 10:08:26;;;;;;;8.45;3.65;;;;;;;24.53;71.44;99125.41;1660898;85;21222;-86
2022/08/24 10:11:27;;;;;;;5.60;3.25;;;;;;;24.69;72.20;99119.66;1696408;83;21034;-85
2022/08/24 10:14:20;;;;;;;9.38;3.75;;;;;;;24.76;71.13;99118.19;1693723;83;21117;-83
2022/08/24 10:17:26;;;;;;;6.78;4.03;;;;;;;24.80;70.45;99123.11;1694968;83;20998;-85
2022/08/24 10:20:16;;;;;;;9.10;3.58;;;;;;;24.84;69.32;99118.39;1695756;83;21082;-84
2022/08/24 10:23:11;;;;;;;11.65;4.42;;;;;;;24.77;68.86;99115.88;1675651;83;21023;-86
2022/08/24 10:26:06;;;;;;;10.53;6.97;;;;;;;24.77;68.67;99110.09;1683769;83;21050;-85
2022/08/24 10:28:47;;;;;;;6.37;3.55;;;;;;;24.80;69.99;99111.64;1701806;83;21011;-87
2022/08/24 10:31:34;;;;;;;5.25;3.40;;;;;;;24.96;68.75;99111.20;1704163;83;20998;-86
2022/08/24 10:34:35;;;;;;;7.55;3.55;;;;;;;24.94;68.90;99112.65;1700478;82;21038;-86
2022/08/24 10:37:32;;;;;;;7.90;3.20;;;;;;;25.04;68.59;99107.39;1699534;83;21653;-87
2022/08/24 10:40:26;;;;;;;12.23;3.45;;;;;;;25.17;66.37;99106.71;1732563;82;21039;-87
2022/08/24 10:43:35;;;;;;;6.65;3.30;;;;;;;25.26;66.21;99109.59;1722252;82;21025;-85
2022/08/24 10:46:45;;;;;;;6.20;3.60;;;;;;;25.28;65.81;99117.78;1677265;80;21084;-85
2022/08/24 10:49:46;;;;;;;8.23;3.05;;;;;;;25.35;64.82;99119.45;1652412;85;21051;-87
2022/08/24 10:52:40;;;;;;;7.20;3.27;;;;;;;25.44;65.16;99119.13;1705444;81;20991;-86
2022/08/24 10:55:21;;;;;;;6.67;3.15;;;;;;;25.49;64.44;99113.77;1722114;81;21033;-84
2022/08/24 10:58:13;;;;;;;6.60;3.30;;;;;;;25.57;64.05;99115.27;1733960;81;21083;-84
2022/08/24 11:00:40;;;;;;;8.90;3.70;;;;;;;25.70;64.07;99116.86;1734613;81;21052;-84
2022/08/24 11:03:20;;;;;;;7.17;3.40;;;;;;;25.69;61.92;99116.52;1740044;82;20948;-86
2022/08/24 11:05:54;;;;;;;6.03;3.22;;;;;;;25.70;63.59;99110.20;1731552;82;20964;-84
2022/08/24 11:08:28;;;;;;;6.35;3.58;;;;;;;25.75;63.68;99111.48;1738441;82;21047;-83
2022/08/24 11:11:12;;;;;;;6.08;3.30;;;;;;;25.77;63.47;99110.03;1731952;82;20988;-84
2022/08/24 11:13:59;;;;;;;9.48;3.70;;;;;;;25.71;61.69;99108.74;1740990;81;21092;-83
2022/08/24 11:16:30;;;;;;;7.20;3.30;;;;;;;25.67;60.32;99116.65;1740077;82;21009;-84
2022/08/24 11:19:02;;;;;;;7.45;4.08;;;;;;;25.67;62.00;99109.16;1737882;82;21030;-85
2022/08/24 11:21:48;;;;;;;21.57;10.90;;;;;;;25.73;62.41;99112.11;1735788;82;21040;-84
2022/08/24 11:24:24;;;;;;;7.15;4.50;;;;;;;25.83;62.49;99110.81;1730539;82;21054;-84
2022/08/24 11:27:17;;;;;;;9.03;5.08;;;;;;;25.89;62.20;99105.44;1739024;82;21547;-81
2022/08/24 11:29:53;;;;;;;;;;;;;;;26.03;62.19;99105.58;1744600;82;21017;-82
2022/08/24 11:32:31;;;;;;;9.95;3.72;;;;;;;26.21;61.58;99106.59;1744801;82;20178;-80
2022/08/24 11:35:34;;;;;;;15.75;8.23;;;;;;;26.32;61.41;99106.47;1738585;82;21107;-84
2022/08/24 11:38:21;;;;;;;8.90;3.50;;;;;;;26.46;61.68;99098.55;1734861;82;21122;-85
2022/08/24 11:41:15;;;;;;;7.08;4.17;;;;;;;26.56;60.99;99103.86;1744166;82;21007;-85
2022/08/24 11:43:59;;;;;;;29.63;21.00;;;;;;;26.72;60.92;99101.52;1737685;82;22530;-85
2022/08/24 11:46:49;;;;;;;9.58;3.80;;;;;;;26.85;61.56;99103.88;1735739;82;21123;-85
2022/08/24 11:49:24;;;;;;;6.03;3.17;;;;;;;26.92;61.24;99105.51;1691138;83;21006;-84
2022/08/24 11:51:59;;;;;;;5.72;3.50;;;;;;;27.21;60.97;99097.92;1691262;84;20995;-82
2022/08/24 11:54:59;;;;;;;9.25;3.12;;;;;;;27.41;60.23;99088.05;1692993;84;21502;-84
2022/08/24 11:57:31;;;;;;;6.30;3.50;;;;;;;27.49;59.26;99083.65;1647477;85;21046;-84
2022/08/24 12:00:12;;;;;;;6.05;3.42;;;;;;;27.71;59.87;99082.42;1700479;84;21045;-85
2022/08/24 12:03:23;;;;;;;6.03;3.45;;;;;;;27.93;59.59;99078.56;1675587;85;21037;-84
2022/08/24 12:06:04;;;;;;;6.92;3.50;;;;;;;28.17;58.16;99082.45;1683455;85;21041;-84
2022/08/24 12:08:54;;;;;;;6.65;3.42;;;;;;;28.24;54.47;99084.05;1686398;84;21026;-84
2022/08/24 12:11:55;;;;;;;10.58;3.47;;;;;;;28.09;53.91;99082.38;1688327;85;21069;-84
2022/08/24 12:14:44;;;;;;;10.95;3.80;;;;;;;27.86;52.43;99088.13;1691639;83;21100;-85
2022/08/24 12:17:22;;;;;;;7.47;3.85;;;;;;;27.89;55.39;99079.82;1688259;83;21005;-83
2022/08/24 12:19:54;;;;;;;10.95;3.40;;;;;;;27.87;56.19;99087.62;1689077;83;20986;-83
2022/08/24 12:22:22;;;;;;;10.25;3.80;;;;;;;27.87;55.42;99079.13;1688217;83;21034;-85
2022/08/24 12:24:53;;;;;;;9.13;3.75;;;;;;;27.96;56.26;99079.58;1699096;83;21027;-85
2022/08/24 12:27:33;;;;;;;7.50;3.70;;;;;;;27.88;55.35;99074.15;1696816;83;21049;-85
2022/08/24 12:30:11;;;;;;;7.20;3.55;;;;;;;27.89;55.95;99069.14;1706310;83;21035;-85